createdAt,value
2022-08-24T00:01:11.567Z,43.28
2022-08-24T00:03:39.392Z,43.73
2022-08-24T00:06:08.117Z,43.95
2022-08-24T00:08:35.985Z,44.27
2022-08-24T00:11:03.206Z,44.48
2022-08-24T00:13:32.504Z,45.74
2022-08-24T00:16:00.243Z,45.12
2022-08-24T00:18:27.164Z,45.42
2022-08-24T00:20:54.285Z,45.92
2022-08-24T00:23:20.829Z,45.54
2022-08-24T00:25:47.410Z,45.59
2022-08-24T00:28:13.978Z,46.65
2022-08-24T00:30:40.503Z,45.89
2022-08-24T00:33:07.125Z,46.41
2022-08-24T00:35:33.739Z,46.72
2022-08-24T00:38:00.255Z,46.83
2022-08-24T00:40:31.467Z,46.80
2022-08-24T00:42:58.111Z,46.86
2022-08-24T00:45:24.712Z,46.82
2022-08-24T00:48:05.577Z,47.06
2022-08-24T00:50:40.000Z,46.85
2022-08-24T00:53:12.662Z,45.37
2022-08-24T00:55:44.127Z,46.18
2022-08-24T00:58:17.150Z,46.25
2022-08-24T01:00:50.011Z,46.41
2022-08-24T01:03:17.248Z,46.61
2022-08-24T01:05:44.032Z,46.37
2022-08-24T01:08:12.652Z,46.34
2022-08-24T01:10:46.910Z,46.18
2022-08-24T01:13:14.682Z,46.14
2022-08-24T01:15:43.481Z,46.53
2022-08-24T01:18:14.926Z,46.66
2022-08-24T01:20:44.138Z,46.06
2022-08-24T01:23:36.770Z,45.46
2022-08-24T01:26:05.370Z,45.39
2022-08-24T01:28:33.624Z,45.39
2022-08-24T01:31:03.606Z,45.34
2022-08-24T01:33:31.211Z,44.96
2022-08-24T01:36:01.617Z,45.52
2022-08-24T01:38:28.185Z,45.38
2022-08-24T01:40:58.342Z,45.30
2022-08-24T01:43:25.014Z,45.75
2022-08-24T01:45:51.614Z,45.62
2022-08-24T01:48:22.753Z,46.08
2022-08-24T01:50:49.648Z,45.67
2022-08-24T01:53:16.265Z,46.37
2022-08-24T01:55:42.932Z,46.00
2022-08-24T01:58:09.445Z,46.05
2022-08-24T02:00:36.826Z,46.21
2022-08-24T02:03:03.999Z,46.47
2022-08-24T02:05:30.807Z,46.79
2022-08-24T02:07:57.297Z,47.00
2022-08-24T02:10:24.359Z,47.41
2022-08-24T02:12:51.161Z,47.04
2022-08-24T02:15:17.718Z,47.03
2022-08-24T02:17:44.221Z,47.90
2022-08-24T02:20:10.837Z,48.15
2022-08-24T02:22:37.407Z,47.90
2022-08-24T02:25:04.203Z,47.92
2022-08-24T02:27:30.893Z,48.32
2022-08-24T02:29:57.389Z,48.41
2022-08-24T02:32:23.920Z,48.26
2022-08-24T02:34:50.421Z,48.11
2022-08-24T02:37:21.387Z,48.24
2022-08-24T02:39:48.033Z,48.12
2022-08-24T02:42:14.713Z,48.08
2022-08-24T02:44:41.320Z,47.88
2022-08-24T02:47:07.825Z,48.56
2022-08-24T02:49:35.326Z,47.88
2022-08-24T02:52:02.331Z,48.17
2022-08-24T02:54:28.954Z,48.15
2022-08-24T02:56:55.627Z,48.51
2022-08-24T02:59:22.349Z,49.09
2022-08-24T03:01:49.950Z,49.55
2022-08-24T03:04:17.244Z,49.83
2022-08-24T03:06:43.799Z,49.94
2022-08-24T03:09:10.334Z,49.54
2022-08-24T03:11:37.187Z,50.16
2022-08-24T03:14:03.712Z,50.08
2022-08-24T03:16:31.219Z,49.72
2022-08-24T03:18:58.079Z,49.76
2022-08-24T03:21:25.110Z,49.61
2022-08-24T03:23:51.655Z,49.93
2022-08-24T03:26:18.144Z,50.33
2022-08-24T03:28:45.247Z,50.84
2022-08-24T03:31:11.969Z,50.95
2022-08-24T03:33:38.529Z,50.87
2022-08-24T03:36:05.341Z,51.14
2022-08-24T03:38:31.822Z,50.67
2022-08-24T03:40:58.340Z,51.17
2022-08-24T03:43:24.896Z,51.76
2022-08-24T03:45:51.432Z,51.36
2022-08-24T03:48:18.005Z,51.20
2022-08-24T03:50:45.072Z,52.02
2022-08-24T03:53:11.609Z,52.11
2022-08-24T03:55:38.146Z,52.78
2022-08-24T03:58:04.695Z,52.70
2022-08-24T04:00:31.288Z,52.98
2022-08-24T04:02:57.875Z,52.68
2022-08-24T04:05:24.489Z,52.89
2022-08-24T04:07:51.034Z,53.13
2022-08-24T04:10:17.644Z,53.57
2022-08-24T04:12:44.207Z,53.49
2022-08-24T04:15:12.949Z,53.85
2022-08-24T04:17:39.461Z,54.06
2022-08-24T04:20:06.771Z,54.04
2022-08-24T04:22:33.483Z,54.57
2022-08-24T04:24:59.997Z,54.61
2022-08-24T04:27:26.535Z,54.17
2022-08-24T04:29:53.072Z,54.55
2022-08-24T04:32:19.656Z,54.44
2022-08-24T04:34:46.275Z,55.27
2022-08-24T04:37:12.816Z,54.98
2022-08-24T04:39:42.105Z,55.35
2022-08-24T04:42:09.459Z,55.37
2022-08-24T04:44:36.246Z,55.96
2022-08-24T04:47:03.347Z,56.13
2022-08-24T04:49:30.063Z,55.84
2022-08-24T04:51:56.659Z,56.42
2022-08-24T04:54:23.321Z,56.17
2022-08-24T04:56:49.831Z,55.63
2022-08-24T04:59:16.340Z,55.60
2022-08-24T05:01:42.906Z,55.32
2022-08-24T05:04:09.539Z,55.68
2022-08-24T05:06:36.074Z,56.20
2022-08-24T05:09:04.314Z,57.06
2022-08-24T05:11:30.899Z,57.73
2022-08-24T05:13:58.907Z,58.34
2022-08-24T05:16:26.124Z,58.44
2022-08-24T05:18:53.065Z,59.03
2022-08-24T05:21:22.035Z,58.51
2022-08-24T05:23:48.583Z,58.93
2022-08-24T05:26:22.499Z,58.51
2022-08-24T05:28:49.020Z,57.99
2022-08-24T05:31:23.251Z,58.31
2022-08-24T05:33:50.543Z,58.62
2022-08-24T05:36:23.720Z,59.04
2022-08-24T05:38:52.434Z,59.37
2022-08-24T05:41:19.283Z,59.60
2022-08-24T05:43:46.158Z,59.58
2022-08-24T05:46:13.623Z,59.22
2022-08-24T05:48:40.552Z,59.29
2022-08-24T05:51:08.641Z,58.83
2022-08-24T05:53:35.353Z,58.97
2022-08-24T05:56:20.610Z,59.30
2022-08-24T05:58:47.580Z,59.21
2022-08-24T06:01:23.467Z,59.43
2022-08-24T06:03:51.690Z,60.07
2022-08-24T06:06:19.224Z,59.77
2022-08-24T06:08:48.699Z,59.45
2022-08-24T06:11:30.487Z,60.01
2022-08-24T06:14:02.871Z,59.48
2022-08-24T06:16:40.375Z,58.99
2022-08-24T06:19:08.974Z,59.18
2022-08-24T06:21:35.527Z,58.88
2022-08-24T06:24:02.060Z,58.25
2022-08-24T06:26:29.331Z,58.66
2022-08-24T06:28:56.733Z,58.04
2022-08-24T06:31:24.053Z,57.70
2022-08-24T06:33:51.362Z,57.03
2022-08-24T06:36:17.881Z,57.08
2022-08-24T06:38:49.210Z,57.19
2022-08-24T06:41:16.806Z,57.95
2022-08-24T06:43:43.379Z,57.82
2022-08-24T06:46:10.193Z,58.04
2022-08-24T06:48:36.753Z,57.60
2022-08-24T06:51:12.038Z,56.75
2022-08-24T06:53:38.864Z,57.05
2022-08-24T06:56:05.599Z,57.65
2022-08-24T06:58:32.431Z,56.94
2022-08-24T07:01:08.038Z,56.61
2022-08-24T07:03:34.597Z,54.58
2022-08-24T07:06:02.622Z,50.42
2022-08-24T07:08:29.163Z,46.52
2022-08-24T07:10:55.697Z,44.76
2022-08-24T07:13:22.283Z,43.40
2022-08-24T07:15:50.998Z,41.83
2022-08-24T07:18:19.151Z,41.52
2022-08-24T07:20:46.977Z,39.75
2022-08-24T07:23:17.194Z,39.31
2022-08-24T07:25:48.967Z,39.01
2022-08-24T07:28:17.185Z,38.65
2022-08-24T07:30:55.057Z,38.38
2022-08-24T07:33:21.607Z,38.97
2022-08-24T07:35:48.147Z,38.93
2022-08-24T07:38:14.661Z,38.85
2022-08-24T07:41:05.148Z,39.27
2022-08-24T07:43:27.767Z,39.25
2022-08-24T07:45:54.397Z,39.40
2022-08-24T07:48:20.949Z,40.04
2022-08-24T07:50:47.670Z,40.17
2022-08-24T07:53:18.060Z,39.03
2022-08-24T07:55:53.458Z,39.35
2022-08-24T07:58:19.994Z,40.31
2022-08-24T08:00:48.088Z,39.91
2022-08-24T08:03:15.004Z,39.53
2022-08-24T08:05:41.572Z,39.98
2022-08-24T08:08:08.215Z,39.93
2022-08-24T08:10:35.038Z,40.50
2022-08-24T08:13:05.686Z,40.33
2022-08-24T08:15:32.470Z,39.78
2022-08-24T08:17:59.236Z,39.69
2022-08-24T08:20:25.734Z,40.88
2022-08-24T08:22:52.296Z,40.37
2022-08-24T08:25:18.895Z,40.27
2022-08-24T08:27:45.715Z,40.11
2022-08-24T08:30:12.520Z,39.45
2022-08-24T08:32:39.026Z,40.21
2022-08-24T08:35:06.182Z,39.02
2022-08-24T08:37:32.873Z,38.62
2022-08-24T08:39:59.670Z,38.21
2022-08-24T08:43:01.463Z,38.42
2022-08-24T08:45:54.492Z,38.59
2022-08-24T08:48:45.706Z,38.68
2022-08-24T08:51:39.373Z,37.30
2022-08-24T08:54:23.990Z,38.06
2022-08-24T08:57:12.068Z,37.52
2022-08-24T09:00:08.222Z,37.18
2022-08-24T09:03:05.256Z,37.46
2022-08-24T09:05:58.605Z,37.14
2022-08-24T09:08:28.125Z,35.99
2022-08-24T09:10:57.496Z,37.61
2022-08-24T09:13:33.564Z,37.99
2022-08-24T09:16:43.961Z,37.95
2022-08-24T09:19:19.410Z,38.98
2022-08-24T09:21:57.931Z,37.92
2022-08-24T09:24:52.352Z,38.57
2022-08-24T09:27:21.613Z,39.71
2022-08-24T09:30:08.532Z,38.73
2022-08-24T09:32:35.075Z,38.77
2022-08-24T09:35:07.006Z,37.93
2022-08-24T09:37:54.283Z,39.10
2022-08-24T09:40:44.712Z,39.67
2022-08-24T09:43:44.018Z,38.72
2022-08-24T09:46:40.347Z,39.05
2022-08-24T09:49:41.339Z,39.30
2022-08-24T09:52:44.589Z,39.11
2022-08-24T09:55:17.007Z,39.01
2022-08-24T09:58:00.691Z,40.01
2022-08-24T10:00:31.410Z,38.40
2022-08-24T10:02:59.592Z,38.80
2022-08-24T10:05:36.873Z,39.27
2022-08-24T10:08:20.565Z,39.18
2022-08-24T10:10:58.737Z,38.92
2022-08-24T10:13:53.631Z,39.21
2022-08-24T10:16:32.066Z,39.22
2022-08-24T10:19:24.691Z,39.12
2022-08-24T10:22:29.692Z,39.59
2022-08-24T10:25:23.147Z,39.69
2022-08-24T10:27:51.403Z,39.32
2022-08-24T10:30:36.705Z,39.51
2022-08-24T10:33:11.576Z,38.85
2022-08-24T10:36:03.126Z,39.32
2022-08-24T10:39:08.015Z,39.08
2022-08-24T10:41:44.474Z,39.96
2022-08-24T10:44:23.758Z,38.86
2022-08-24T10:46:55.532Z,39.51
2022-08-24T10:50:07.186Z,38.93
2022-08-24T10:52:49.747Z,38.45
2022-08-24T10:55:21.788Z,39.37
2022-08-24T10:58:07.422Z,39.57
2022-08-24T11:00:34.276Z,39.86
2022-08-24T11:03:11.897Z,39.64
2022-08-24T11:05:48.443Z,39.02
2022-08-24T11:08:24.114Z,38.73
2022-08-24T11:11:12.792Z,38.89
2022-08-24T11:14:01.622Z,39.21
2022-08-24T11:16:33.606Z,39.55
2022-08-24T11:19:02.621Z,39.23
2022-08-24T11:21:37.487Z,39.29
2022-08-24T11:24:11.318Z,39.66
2022-08-24T11:26:57.806Z,39.50
2022-08-24T11:29:29.996Z,39.13
2022-08-24T11:31:56.978Z,40.05
2022-08-24T11:34:41.497Z,39.77
2022-08-24T11:37:14.875Z,40.00
2022-08-24T11:39:41.493Z,39.62
2022-08-24T11:42:14.142Z,39.74
2022-08-24T11:44:45.887Z,38.07
2022-08-24T11:47:27.768Z,39.09
2022-08-24T11:50:03.135Z,38.99
2022-08-24T11:52:35.491Z,39.44
2022-08-24T11:55:24.238Z,39.15
2022-08-24T11:58:00.113Z,39.47
2022-08-24T12:00:37.018Z,39.22
2022-08-24T12:03:41.143Z,39.99
2022-08-24T12:06:18.602Z,39.53
2022-08-24T12:08:48.722Z,39.38
2022-08-24T12:11:26.299Z,38.97
2022-08-24T12:14:27.161Z,39.10
2022-08-24T12:17:11.530Z,39.45
2022-08-24T12:19:46.205Z,39.94
2022-08-24T12:22:13.866Z,39.01
2022-08-24T12:24:52.654Z,39.91
2022-08-24T12:27:22.095Z,39.85
2022-08-24T12:30:13.090Z,39.35
2022-08-24T12:32:46.766Z,39.76
2022-08-24T12:35:30.416Z,39.62
2022-08-24T12:38:21.894Z,39.72
2022-08-24T12:41:03.405Z,39.19
2022-08-24T12:44:07.832Z,39.49
2022-08-24T12:46:35.108Z,39.99
2022-08-24T12:49:21.631Z,39.57
2022-08-24T12:52:33.001Z,40.01
2022-08-24T12:55:15.687Z,39.82
2022-08-24T12:57:51.868Z,38.53
2022-08-24T13:00:32.558Z,38.65
2022-08-24T13:03:03.676Z,39.30
2022-08-24T13:05:43.119Z,39.88
2022-08-24T13:08:13.028Z,38.96
2022-08-24T13:10:43.459Z,38.66
2022-08-24T13:13:16.513Z,39.66
2022-08-24T13:15:52.861Z,39.22
2022-08-24T13:18:20.435Z,38.00
2022-08-24T13:20:49.867Z,37.62
2022-08-24T13:23:19.544Z,38.03
2022-08-24T13:25:52.180Z,37.93
2022-08-24T13:28:21.901Z,37.40
2022-08-24T13:31:03.600Z,37.71
2022-08-24T13:33:59.742Z,37.35
2022-08-24T13:36:29.226Z,37.74
2022-08-24T13:39:05.707Z,37.32
2022-08-24T13:41:49.570Z,37.49
2022-08-24T13:44:28.417Z,38.24
2022-08-24T13:47:26.199Z,37.55
2022-08-24T13:49:52.619Z,37.04
2022-08-24T13:52:23.099Z,37.13
2022-08-24T13:55:15.867Z,37.65
2022-08-24T13:58:03.545Z,37.47
2022-08-24T14:00:30.238Z,37.36
2022-08-24T14:03:02.015Z,38.07
2022-08-24T14:05:50.286Z,36.76
2022-08-24T14:08:52.347Z,36.51
2022-08-24T14:11:25.216Z,36.75
2022-08-24T14:14:18.470Z,36.07
2022-08-24T14:17:19.297Z,36.33
2022-08-24T14:19:55.677Z,36.11
2022-08-24T14:23:03.615Z,36.03
2022-08-24T14:25:32.328Z,36.08
2022-08-24T14:27:58.858Z,35.57
2022-08-24T14:30:25.353Z,36.23
2022-08-24T14:32:57.663Z,35.81
2022-08-24T14:35:33.125Z,35.90
2022-08-24T14:38:12.468Z,35.11
2022-08-24T14:41:01.635Z,34.99
2022-08-24T14:43:40.555Z,34.60
2022-08-24T14:46:37.368Z,35.17
2022-08-24T14:49:32.098Z,35.00
2022-08-24T14:52:23.907Z,35.46
2022-08-24T14:55:17.969Z,34.56
2022-08-24T14:58:11.647Z,34.62
2022-08-24T15:00:55.291Z,34.89
2022-08-24T15:03:40.604Z,34.63
2022-08-24T15:06:26.220Z,34.55
2022-08-24T15:08:54.440Z,34.37
2022-08-24T15:11:25.373Z,34.41
2022-08-24T15:14:02.207Z,34.66
2022-08-24T15:16:54.155Z,34.50
2022-08-24T15:19:22.971Z,34.88
2022-08-24T15:22:04.281Z,34.61
2022-08-24T15:25:05.289Z,35.51
2022-08-24T15:27:43.398Z,36.15
2022-08-24T15:30:32.251Z,36.35
2022-08-24T15:33:19.889Z,36.21
2022-08-24T15:36:11.647Z,36.49
2022-08-24T15:38:40.480Z,36.19
2022-08-24T15:41:19.772Z,36.51
2022-08-24T15:43:56.687Z,36.66
2022-08-24T15:46:39.443Z,36.24
2022-08-24T15:49:28.960Z,36.88
2022-08-24T15:52:00.046Z,36.72
2022-08-24T15:54:31.136Z,36.85
2022-08-24T15:57:20.338Z,37.40
2022-08-24T15:59:49.345Z,36.99
2022-08-24T16:02:15.812Z,37.03
2022-08-24T16:04:48.457Z,37.04
2022-08-24T16:07:23.243Z,37.25
2022-08-24T16:10:10.830Z,37.32
2022-08-24T16:12:37.543Z,37.90
2022-08-24T16:15:17.057Z,37.52
2022-08-24T16:17:51.072Z,37.95
2022-08-24T16:20:24.133Z,36.23
2022-08-24T16:23:06.816Z,34.47
2022-08-24T16:25:42.727Z,35.14
2022-08-24T16:28:22.378Z,34.16
2022-08-24T16:30:55.360Z,34.35
2022-08-24T16:33:47.223Z,34.16
2022-08-24T16:36:16.553Z,33.90
2022-08-24T16:38:47.191Z,33.51
2022-08-24T16:41:16.911Z,34.11
2022-08-24T16:43:43.445Z,33.55
2022-08-24T16:46:11.292Z,33.82
2022-08-24T16:48:38.350Z,33.05
2022-08-24T16:51:05.074Z,33.49
2022-08-24T16:53:31.820Z,33.54
2022-08-24T16:56:00.153Z,33.83
2022-08-24T16:58:31.075Z,33.50
2022-08-24T17:00:57.759Z,33.85
2022-08-24T17:03:24.581Z,33.01
2022-08-24T17:05:51.104Z,34.03
2022-08-24T17:08:18.053Z,33.29
2022-08-24T17:10:44.583Z,33.25
2022-08-24T17:13:23.234Z,33.74
2022-08-24T17:16:01.571Z,34.24
2022-08-24T17:18:28.300Z,33.77
2022-08-24T17:20:57.231Z,33.54
2022-08-24T17:23:24.831Z,33.67
2022-08-24T17:25:51.429Z,34.43
2022-08-24T17:28:20.384Z,34.59
2022-08-24T17:30:50.945Z,33.95
2022-08-24T17:33:18.292Z,34.39
2022-08-24T17:35:44.814Z,34.32
2022-08-24T17:38:11.395Z,34.64
2022-08-24T17:40:37.900Z,34.88
2022-08-24T17:43:04.898Z,35.16
2022-08-24T17:45:31.736Z,35.07
2022-08-24T17:47:58.310Z,35.64
2022-08-24T17:50:24.854Z,35.82
2022-08-24T17:52:58.814Z,36.03
2022-08-24T17:55:27.071Z,36.20
2022-08-24T17:57:53.762Z,36.19
2022-08-24T18:00:20.317Z,36.58
2022-08-24T18:02:46.862Z,36.88
2022-08-24T18:05:13.504Z,36.79
2022-08-24T18:07:53.205Z,37.00
2022-08-24T18:10:31.399Z,36.74
2022-08-24T18:13:05.232Z,37.00
2022-08-24T18:15:35.605Z,37.26
2022-08-24T18:18:08.451Z,37.51
2022-08-24T18:20:38.330Z,37.63
2022-08-24T18:23:04.895Z,37.97
2022-08-24T18:25:40.141Z,37.65
2022-08-24T18:28:06.755Z,37.21
2022-08-24T18:30:33.354Z,37.65
2022-08-24T18:33:00.234Z,37.94
2022-08-24T18:35:26.737Z,38.41
2022-08-24T18:37:57.581Z,37.95
2022-08-24T18:40:33.050Z,38.06
2022-08-24T18:43:08.882Z,38.07
2022-08-24T18:45:43.650Z,38.31
2022-08-24T18:48:13.136Z,37.85
2022-08-24T18:50:42.337Z,37.88
2022-08-24T18:53:09.051Z,38.12
2022-08-24T18:55:40.450Z,37.94
2022-08-24T18:58:17.276Z,38.19
2022-08-24T19:00:44.302Z,38.40
2022-08-24T19:03:13.196Z,38.14
2022-08-24T19:05:39.803Z,38.33
2022-08-24T19:08:06.664Z,37.87
2022-08-24T19:10:36.051Z,38.02
2022-08-24T19:13:07.217Z,37.82
2022-08-24T19:15:40.193Z,38.08
2022-08-24T19:18:11.262Z,38.18
2022-08-24T19:21:35.324Z,38.04
2022-08-24T19:24:02.983Z,37.68
2022-08-24T19:26:30.507Z,38.11
2022-08-24T19:28:57.082Z,38.26
2022-08-24T19:31:25.362Z,38.30
2022-08-24T19:33:52.488Z,38.21
2022-08-24T19:36:19.208Z,38.06
2022-08-24T19:38:46.118Z,38.23
2022-08-24T19:41:14.276Z,38.13
2022-08-24T19:43:41.285Z,38.31
2022-08-24T19:46:07.869Z,38.26
2022-08-24T19:48:38.015Z,38.09
2022-08-24T19:51:06.934Z,38.03
2022-08-24T19:53:35.465Z,37.90
2022-08-24T19:56:02.868Z,38.35
2022-08-24T19:58:52.985Z,38.14
2022-08-24T20:01:22.331Z,38.27
2022-08-24T20:03:49.733Z,38.11
2022-08-24T20:06:17.143Z,38.28
2022-08-24T20:08:43.719Z,38.20
2022-08-24T20:11:15.425Z,38.41
2022-08-24T20:13:42.194Z,38.02
2022-08-24T20:16:11.396Z,38.13
2022-08-24T20:18:38.664Z,38.32
2022-08-24T20:21:05.412Z,38.33
2022-08-24T20:23:32.074Z,38.48
2022-08-24T20:26:00.446Z,39.27
2022-08-24T20:28:37.392Z,38.53
2022-08-24T20:31:04.697Z,38.89
2022-08-24T20:33:31.322Z,39.44
2022-08-24T20:36:00.961Z,39.84
2022-08-24T20:38:31.597Z,39.49
2022-08-24T20:41:00.003Z,39.86
2022-08-24T20:43:28.873Z,40.48
2022-08-24T20:45:56.887Z,40.70
2022-08-24T20:48:31.983Z,40.81
2022-08-24T20:50:59.066Z,41.18
2022-08-24T20:53:26.282Z,41.66
2022-08-24T20:55:53.457Z,41.66
2022-08-24T20:58:21.459Z,41.83
2022-08-24T21:00:50.316Z,42.36
2022-08-24T21:03:20.126Z,41.95
2022-08-24T21:05:47.417Z,42.50
2022-08-24T21:08:14.375Z,41.79
2022-08-24T21:10:41.134Z,41.65
2022-08-24T21:13:07.896Z,41.91
2022-08-24T21:15:35.307Z,42.61
2022-08-24T21:18:01.802Z,42.42
2022-08-24T21:20:28.425Z,42.24
2022-08-24T21:22:54.953Z,43.95
2022-08-24T21:25:21.480Z,42.85
2022-08-24T21:27:48.644Z,43.29
2022-08-24T21:30:18.629Z,43.15
2022-08-24T21:32:45.350Z,43.65
2022-08-24T21:35:11.872Z,43.93
2022-08-24T21:37:42.280Z,43.92
2022-08-24T21:40:09.650Z,43.81
2022-08-24T21:42:36.638Z,43.75
2022-08-24T21:45:04.195Z,43.65
2022-08-24T21:47:30.751Z,44.35
2022-08-24T21:49:59.392Z,44.84
2022-08-24T21:52:26.089Z,44.26
2022-08-24T21:54:56.868Z,44.52
2022-08-24T21:57:23.567Z,44.25
2022-08-24T21:59:50.132Z,44.25
2022-08-24T22:02:16.903Z,45.50
2022-08-24T22:04:47.913Z,44.96
2022-08-24T22:07:24.789Z,45.15
2022-08-24T22:09:51.383Z,45.15
2022-08-24T22:12:18.094Z,45.52
2022-08-24T22:14:44.635Z,45.42
2022-08-24T22:17:11.386Z,45.63
2022-08-24T22:19:37.898Z,45.96
2022-08-24T22:22:04.639Z,45.96
2022-08-24T22:24:31.403Z,46.17
2022-08-24T22:26:57.999Z,46.28
2022-08-24T22:29:24.510Z,46.80
2022-08-24T22:31:51.704Z,46.69
2022-08-24T22:34:20.756Z,46.70
2022-08-24T22:36:48.690Z,46.62
2022-08-24T22:39:15.968Z,46.88
2022-08-24T22:41:42.803Z,46.62
2022-08-24T22:44:12.222Z,47.01
2022-08-24T22:46:38.845Z,47.20
2022-08-24T22:49:06.918Z,47.43
2022-08-24T22:51:33.658Z,47.45
2022-08-24T22:54:00.493Z,47.55
2022-08-24T22:56:33.461Z,47.78
2022-08-24T22:59:02.353Z,48.33
2022-08-24T23:01:38.334Z,48.37
2022-08-24T23:04:08.313Z,48.51
2022-08-24T23:06:34.884Z,48.28
2022-08-24T23:09:05.436Z,48.61
2022-08-24T23:11:32.302Z,48.51
2022-08-24T23:14:00.334Z,48.83
2022-08-24T23:16:27.049Z,48.76
2022-08-24T23:18:53.721Z,48.36
2022-08-24T23:21:20.520Z,48.82
2022-08-24T23:23:47.420Z,48.93
2022-08-24T23:26:18.123Z,48.18
2022-08-24T23:28:44.990Z,48.41
2022-08-24T23:31:17.918Z,48.46
2022-08-24T23:33:44.584Z,48.36
2022-08-24T23:36:18.997Z,48.63
2022-08-24T23:38:45.516Z,48.18
2022-08-24T23:41:14.263Z,48.50
2022-08-24T23:43:41.701Z,49.03
2022-08-24T23:46:09.456Z,49.08
2022-08-24T23:48:40.221Z,49.36
2022-08-24T23:51:11.266Z,49.73
2022-08-24T23:53:38.202Z,50.48
2022-08-24T23:56:11.768Z,50.13
2022-08-24T23:58:38.309Z,50.22
